Time;durP1;ratioP1;P1;durP2;ratioP2;P2;SDS_P1;SDS_P2;PMS_P1;PMS_P2;Temp;Humidity;BMP_temperature;BMP_pressure;BME280_temperature;BME280_humidity;BME280_pressure;Samples;Min_cycle;Max_cycle;Signal;HPM_P1;HPM_P2
2024/01/12 00:03:37;;;;;;;13.38;10.40;;;;;;;17.73;34.64;97695.41;10365125;28;20030;-29
2024/01/12 00:08:38;;;;;;;11.70;9.37;;;;;;;17.74;35.19;97700.47;10364637;28;20106;-30
2024/01/12 00:13:38;;;;;;;16.08;8.88;;;;;;;17.72;35.71;97697.06;10365225;28;20509;-30
2024/01/12 00:18:39;;;;;;;11.93;9.73;;;;;;;17.71;34.69;97691.97;10364499;28;20095;-30
2024/01/12 00:23:39;;;;;;;13.77;9.60;;;;;;;17.74;34.52;97686.97;10362292;28;20704;-31
2024/01/12 00:28:40;;;;;;;11.60;9.57;;;;;;;17.74;35.19;97669.25;10365054;28;20038;-30
2024/01/12 00:33:40;;;;;;;13.43;9.33;;;;;;;17.74;35.31;97669.25;10364518;28;20033;-31
2024/01/12 00:38:41;;;;;;;9.80;8.67;;;;;;;17.72;35.86;97670.88;10363988;28;20033;-30
2024/01/12 00:43:41;;;;;;;11.32;8.70;;;;;;;17.71;35.58;97664.97;10364239;28;20386;-30
2024/01/12 00:48:43;;;;;;;13.93;10.03;;;;;;;17.72;35.79;97665.81;10364479;28;20040;-31
2024/01/12 00:53:43;;;;;;;11.85;8.38;;;;;;;17.72;35.04;97660.75;10363014;28;20042;-30
2024/01/12 00:58:43;;;;;;;11.60;8.90;;;;;;;17.70;34.67;97649.75;10364286;28;20042;-30
2024/01/12 01:03:44;;;;;;;13.10;8.33;;;;;;;17.69;35.72;97655.63;10363926;28;20042;-30
2024/01/12 01:08:45;;;;;;;10.83;8.40;;;;;;;17.62;35.60;97659.75;10371655;28;20037;-30
2024/01/12 01:13:46;;;;;;;10.48;7.78;;;;;;;17.65;35.48;97676.69;10372364;28;20104;-31
2024/01/12 01:18:46;;;;;;;10.40;7.18;;;;;;;17.58;35.72;97673.16;10371608;28;20036;-31
2024/01/12 01:23:47;;;;;;;12.37;7.83;;;;;;;17.64;34.88;97682.56;10370596;28;20033;-30
2024/01/12 01:28:47;;;;;;;13.90;7.93;;;;;;;17.63;35.30;97693.50;10371454;28;20093;-30
2024/01/12 01:33:47;;;;;;;10.40;7.57;;;;;;;17.63;35.58;97704.50;10365766;28;20030;-31
2024/01/12 01:38:48;;;;;;;11.03;7.60;;;;;;;17.66;35.19;97712.16;10369457;28;20366;-31
2024/01/12 01:43:48;;;;;;;11.20;8.37;;;;;;;17.69;35.78;97718.94;10370707;28;20039;-31
2024/01/12 01:48:49;;;;;;;11.07;7.80;;;;;;;17.69;35.69;97724.03;10371044;28;20088;-30
2024/01/12 01:53:51;;;;;;;8.27;6.88;;;;;;;17.69;35.68;97716.41;10369199;28;20091;-30
2024/01/12 01:58:52;;;;;;;8.77;7.82;;;;;;;17.71;35.15;97722.38;10370916;28;20099;-30
2024/01/12 02:03:53;;;;;;;11.02;8.25;;;;;;;17.66;34.77;97716.38;10369539;28;20452;-30
2024/01/12 02:08:54;;;;;;;8.40;7.50;;;;;;;17.71;34.46;97722.38;10368940;28;20088;-29
2024/01/12 02:13:56;;;;;;;9.85;7.57;;;;;;;17.72;34.84;97716.47;10369882;28;20034;-30
2024/01/12 02:18:56;;;;;;;8.65;7.47;;;;;;;17.74;33.80;97714.84;10368953;28;20034;-30
2024/01/12 02:23:56;;;;;;;9.13;7.90;;;;;;;17.73;33.59;97710.59;10365651;28;20038;-30
2024/01/12 02:28:58;;;;;;;11.70;8.43;;;;;;;17.73;33.73;97705.53;10368963;28;20125;-30
2024/01/12 02:33:58;;;;;;;9.52;7.13;;;;;;;17.70;34.25;97693.66;10362826;28;20033;-30
2024/01/12 02:38:58;;;;;;;9.10;7.13;;;;;;;17.69;34.40;97693.63;10365412;28;20273;-31
2024/01/12 02:44:01;;;;;;;11.53;7.90;;;;;;;17.70;33.84;97691.13;10367979;28;20041;-31
2024/01/12 02:49:01;;;;;;;9.85;8.30;;;;;;;17.61;34.36;97678.31;10367341;28;20026;-31
2024/01/12 02:54:02;;;;;;;8.65;7.20;;;;;;;17.66;34.16;97684.28;10367225;28;20042;-33
2024/01/12 02:59:02;;;;;;;10.30;7.03;;;;;;;17.66;33.77;97680.94;10367674;28;20038;-31
2024/01/12 03:04:03;;;;;;;9.30;7.13;;;;;;;17.65;33.84;97674.16;10367882;28;20425;-30
2024/01/12 03:09:03;;;;;;;9.85;7.47;;;;;;;17.69;33.06;97686.91;10366935;28;20394;-30
2024/01/12 03:14:03;;;;;;;8.30;6.97;;;;;;;17.69;34.29;97691.09;10367607;28;20429;-31
2024/01/12 03:19:04;;;;;;;9.83;6.20;;;;;;;17.63;35.13;97685.91;10365609;28;20064;-30
2024/01/12 03:24:04;;;;;;;9.00;6.77;;;;;;;17.57;35.17;97681.59;10366067;28;20567;-30
2024/01/12 03:29:05;;;;;;;7.50;6.53;;;;;;;17.62;34.64;97690.13;10365898;28;20296;-30
2024/01/12 03:34:06;;;;;;;10.07;6.13;;;;;;;17.62;34.85;97681.69;10359756;28;20316;-31
2024/01/12 03:39:06;;;;;;;8.95;6.53;;;;;;;17.63;35.06;97690.97;10365852;28;20048;-30
2024/01/12 03:44:06;;;;;;;10.03;6.60;;;;;;;17.63;34.90;97685.91;10366012;28;20149;-31
2024/01/12 03:49:07;;;;;;;8.23;6.53;;;;;;;17.58;35.05;97677.41;10366086;28;20045;-31
2024/01/12 03:54:07;;;;;;;6.90;6.17;;;;;;;17.59;35.29;97695.13;10365119;28;20030;-32
2024/01/12 03:59:07;;;;;;;8.37;6.60;;;;;;;17.59;34.72;97694.28;10365439;28;20452;-31
2024/01/12 04:04:08;;;;;;;7.53;6.03;;;;;;;17.57;34.86;97695.94;10365665;28;20091;-30
2024/01/12 04:09:12;;;;;;;8.50;6.27;;;;;;;17.58;34.53;97703.56;10364132;28;20041;-30
2024/01/12 04:14:12;;;;;;;7.55;5.47;;;;;;;17.53;34.31;97700.09;10365540;28;20034;-30
2024/01/12 04:19:13;;;;;;;8.73;7.40;;;;;;;17.55;34.99;97712.75;10364309;28;20563;-31
2024/01/12 04:24:13;;;;;;;7.40;6.20;;;;;;;17.55;33.82;97697.56;10363419;28;20521;-30
2024/01/12 04:29:13;;;;;;;7.67;5.83;;;;;;;17.56;34.90;97700.16;10363376;28;20030;-30
2024/01/12 04:34:15;;;;;;;9.20;6.10;;;;;;;17.59;35.18;97691.75;10364453;28;20056;-30
2024/01/12 04:39:18;;;;;;;9.23;6.20;;;;;;;17.60;35.66;97694.31;10362339;28;20155;-30
2024/01/12 04:44:19;;;;;;;7.75;5.95;;;;;;;17.63;35.51;97683.38;10363546;28;20580;-29
2024/01/12 04:49:22;;;;;;;5.75;5.13;;;;;;;17.61;35.27;97687.56;10361850;28;20046;-30
2024/01/12 04:54:22;;;;;;;7.65;5.57;;;;;;;17.54;33.91;97679.00;10363009;28;20045;-30
2024/01/12 04:59:22;;;;;;;8.43;5.73;;;;;;;17.57;33.89;97685.81;10364349;28;20410;-30
2024/01/12 05:04:23;;;;;;;8.57;6.03;;;;;;;17.55;32.87;97682.38;10363338;28;20034;-30
2024/01/12 05:09:23;;;;;;;7.93;5.80;;;;;;;17.61;32.69;97685.91;10362324;28;20034;-30
2024/01/12 05:14:23;;;;;;;7.30;5.73;;;;;;;17.59;33.23;97676.56;10359422;28;20044;-32
2024/01/12 05:19:24;;;;;;;7.33;5.90;;;;;;;17.64;32.66;97692.69;10361853;28;20029;-30
2024/01/12 05:24:24;;;;;;;7.57;5.68;;;;;;;17.70;33.18;97688.59;10361615;28;20061;-32
2024/01/12 05:29:25;;;;;;;7.00;5.73;;;;;;;17.72;32.29;97697.06;10363420;28;20037;-31
2024/01/12 05:34:25;;;;;;;7.53;5.70;;;;;;;17.73;32.61;97700.47;10362342;28;20053;-30
2024/01/12 05:39:25;;;;;;;6.70;5.30;;;;;;;17.72;31.93;97693.66;10362092;28;20509;-31
2024/01/12 05:44:26;;;;;;;6.23;5.47;;;;;;;17.70;34.02;97696.19;10356344;28;20037;-30
2024/01/12 05:49:27;;;;;;;9.17;5.90;;;;;;;17.82;34.48;97693.03;10347515;28;20034;-31
2024/01/12 05:54:27;;;;;;;9.82;6.78;;;;;;;17.69;35.12;97691.09;10355046;28;20946;-30
2024/01/12 05:59:27;;;;;;;7.73;5.90;;;;;;;17.74;34.88;97694.56;10367046;28;20044;-30
2024/01/12 06:04:28;;;;;;;8.33;6.03;;;;;;;17.81;36.48;97692.16;10364151;28;20041;-30
2024/01/12 06:09:28;;;;;;;10.60;6.03;;;;;;;17.86;36.73;97694.78;10368327;28;20300;-31
2024/01/12 06:14:29;;;;;;;8.10;6.50;;;;;;;17.80;36.69;97693.00;10361595;28;20134;-30
2024/01/12 06:19:30;;;;;;;8.20;6.50;;;;;;;17.78;34.62;97691.25;10369572;28;20588;-30
2024/01/12 06:24:30;;;;;;;8.93;6.57;;;;;;;17.78;34.37;97706.47;10368325;28;20124;-31
2024/01/12 06:29:30;;;;;;;10.80;7.10;;;;;;;17.67;33.97;97708.78;10369212;28;20060;-30
2024/01/12 06:34:31;;;;;;;11.07;6.88;;;;;;;17.38;33.12;97701.47;10367448;28;20280;-31
2024/01/12 06:39:31;;;;;;;7.00;5.60;;;;;;;17.58;33.80;97728.03;10353969;28;20038;-32
2024/01/12 06:44:32;;;;;;;6.47;5.82;;;;;;;17.60;34.41;97731.44;10361004;28;20040;-31
2024/01/12 06:49:32;;;;;;;7.17;5.60;;;;;;;17.64;33.52;97733.19;10361577;28;20127;-30
2024/01/12 06:54:32;;;;;;;7.35;5.97;;;;;;;17.66;34.92;97731.56;10360340;28;20034;-30
2024/01/12 06:59:33;;;;;;;6.87;5.83;;;;;;;17.55;34.83;97717.81;10358965;28;20038;-31
2024/01/12 07:04:33;;;;;;;9.10;6.80;;;;;;;17.69;32.71;97740.09;10361996;28;20428;-30
2024/01/12 07:09:34;;;;;;;6.50;5.80;;;;;;;17.70;35.26;97738.38;10358911;28;20033;-31
2024/01/12 07:14:34;;;;;;;10.20;6.23;;;;;;;17.68;34.36;97740.03;10358354;28;20038;-30
2024/01/12 07:19:37;;;;;;;7.40;6.03;;;;;;;17.68;34.83;97740.88;10361410;28;20677;-30
2024/01/12 07:24:37;;;;;;;10.38;6.30;;;;;;;17.71;33.00;97732.50;10363640;28;20441;-30
2024/01/12 07:29:38;;;;;;;8.57;6.78;;;;;;;17.66;34.48;97741.69;10360930;28;20104;-31
2024/01/12 07:34:38;;;;;;;8.07;6.07;;;;;;;17.64;35.28;97743.31;10361131;28;20498;-31
2024/01/12 07:39:38;;;;;;;8.63;6.10;;;;;;;17.62;35.13;97750.91;10360166;28;20041;-30
2024/01/12 07:44:39;;;;;;;8.00;5.90;;;;;;;17.56;34.17;97740.66;10363808;28;20048;-31
2024/01/12 07:49:39;;;;;;;9.57;6.60;;;;;;;17.57;35.93;97744.06;10360329;28;20084;-30
2024/01/12 07:54:42;;;;;;;8.30;6.90;;;;;;;17.55;34.88;97744.03;10361684;28;20034;-30
2024/01/12 07:59:43;;;;;;;8.40;6.78;;;;;;;17.54;35.40;97741.44;10365396;28;20382;-30
2024/01/12 08:04:43;;;;;;;9.43;6.90;;;;;;;17.51;33.82;97728.72;10365692;28;20045;-31
2024/01/12 08:09:43;;;;;;;9.63;7.83;;;;;;;17.52;34.85;97727.91;10365066;28;20041;-30
2024/01/12 08:14:44;;;;;;;10.73;6.93;;;;;;;17.50;34.93;97721.97;10364293;28;20284;-31
2024/01/12 08:19:44;;;;;;;9.17;7.33;;;;;;;17.48;35.04;97726.16;10365707;28;20121;-30
2024/01/12 08:24:44;;;;;;;8.77;6.70;;;;;;;17.46;34.91;97732.84;10364409;28;20100;-30
2024/01/12 08:29:45;;;;;;;9.37;7.13;;;;;;;17.46;34.31;97722.72;10363668;28;20064;-28
2024/01/12 08:34:47;;;;;;;8.77;7.10;;;;;;;17.51;35.51;97726.19;10365005;28;20048;-30
2024/01/12 08:39:47;;;;;;;10.05;7.35;;;;;;;17.54;34.97;97734.72;10363579;28;20312;-30
2024/01/12 08:44:48;;;;;;;10.43;7.73;;;;;;;17.58;35.25;97739.00;10365076;28;20580;-30
2024/01/12 08:49:48;;;;;;;10.93;8.07;;;;;;;17.56;34.97;97735.59;10364013;28;20117;-31
2024/01/12 08:54:48;;;;;;;8.93;6.63;;;;;;;17.52;34.54;97738.91;10363652;28;20129;-29
2024/01/12 08:59:49;;;;;;;11.63;7.13;;;;;;;17.57;35.13;97739.00;10363336;28;20537;-31
2024/01/12 09:04:49;;;;;;;15.23;8.53;;;;;;;17.32;33.24;97752.78;10364266;28;20291;-30
2024/01/12 09:09:52;;;;;;;13.67;11.17;;;;;;;17.08;34.55;97764.06;10363484;28;20029;-32
2024/01/12 09:14:52;;;;;;;16.67;9.15;;;;;;;17.17;34.84;97751.63;10363631;28;20433;-30
2024/01/12 09:19:52;;;;;;;11.43;8.57;;;;;;;17.28;35.49;97766.22;10359708;28;20038;-30
2024/01/12 09:24:53;;;;;;;10.37;9.27;;;;;;;17.36;34.30;97766.41;10361808;28;20073;-31
2024/01/12 09:29:53;;;;;;;12.32;7.07;;;;;;;17.35;36.07;97759.59;10371369;28;20437;-32
2024/01/12 09:34:54;;;;;;;11.27;8.67;;;;;;;17.34;34.24;97765.47;10368686;28;20045;-30
2024/01/12 09:39:55;;;;;;;12.25;7.38;;;;;;;17.37;36.38;97776.56;10369632;28;20296;-30
2024/01/12 09:44:55;;;;;;;12.77;8.73;;;;;;;17.33;36.69;97776.44;10370209;28;20037;-30
2024/01/12 09:49:56;;;;;;;12.53;8.77;;;;;;;17.33;36.36;97786.56;10370935;28;20095;-30
2024/01/12 09:54:56;;;;;;;11.68;8.65;;;;;;;17.34;35.84;97799.22;10369446;28;20034;-30
2024/01/12 09:59:58;;;;;;;11.05;8.05;;;;;;;17.37;36.11;97798.47;10369798;28;20038;-31
2024/01/12 10:04:59;;;;;;;10.63;7.95;;;;;;;17.33;36.52;97776.44;10370476;28;20041;-30
2024/01/12 10:09:59;;;;;;;9.25;7.72;;;;;;;17.38;36.92;97797.66;10368667;28;20044;-30
2024/01/12 10:15:04;;;;;;;12.95;8.55;;;;;;;17.38;36.53;97790.06;10368931;28;20042;-30
2024/01/12 10:20:06;;;;;;;12.27;9.50;;;;;;;17.43;34.73;97788.47;10367705;28;20034;-28
2024/01/12 10:25:07;;;;;;;10.75;8.02;;;;;;;17.41;36.53;97795.19;10368597;28;20136;-29
2024/01/12 10:30:08;;;;;;;13.07;9.77;;;;;;;17.43;34.36;97788.47;10368133;28;20026;-30
2024/01/12 10:35:09;;;;;;;11.68;9.73;;;;;;;17.47;34.81;97795.31;10368971;28;20037;-30
2024/01/12 10:40:12;;;;;;;11.05;9.27;;;;;;;17.51;34.35;97790.34;10366197;28;20038;-30
2024/01/12 10:45:13;;;;;;;13.48;10.18;;;;;;;17.56;35.31;97800.59;10368514;28;20121;-31
2024/01/12 10:50:15;;;;;;;12.48;10.88;;;;;;;17.58;34.93;97793.88;10368202;28;20701;-29
2024/01/12 10:55:16;;;;;;;14.13;10.57;;;;;;;17.61;35.45;97793.94;10368043;28;20037;-30
2024/01/12 11:00:18;;;;;;;19.63;11.75;;;;;;;17.66;34.57;97793.19;10366578;28;20037;-30
2024/01/12 11:05:20;;;;;;;18.95;12.38;;;;;;;17.68;33.59;97785.63;10367489;28;20040;-30
2024/01/12 11:10:21;;;;;;;14.00;11.95;;;;;;;17.73;33.53;97784.06;10367294;28;20030;-30
2024/01/12 11:15:22;;;;;;;14.13;11.65;;;;;;;17.74;32.94;97791.66;10366773;28;20042;-30
2024/01/12 11:20:22;;;;;;;16.48;12.52;;;;;;;17.74;33.29;97770.56;10366619;28;20034;-30
2024/01/12 11:25:23;;;;;;;16.75;13.27;;;;;;;17.74;32.58;97776.47;10367406;28;20117;-31
2024/01/12 11:30:28;;;;;;;16.67;13.30;;;;;;;17.73;33.39;97763.78;10358661;28;20030;-30
2024/01/12 11:35:30;;;;;;;17.63;13.05;;;;;;;17.71;33.46;97762.88;10361284;28;20096;-30
2024/01/12 11:40:30;;;;;;;16.23;12.40;;;;;;;17.67;33.04;97759.44;10366382;28;20119;-30
2024/01/12 11:45:32;;;;;;;14.98;12.40;;;;;;;17.67;33.92;97758.59;10359997;28;20446;-29
2024/01/12 11:50:32;;;;;;;15.25;12.48;;;;;;;17.59;33.41;97734.81;10359062;28;20578;-30
2024/01/12 11:55:36;;;;;;;19.00;13.87;;;;;;;17.58;34.16;97733.09;10366245;28;20052;-30
2024/01/12 12:00:36;;;;;;;16.85;13.95;;;;;;;17.60;33.78;97744.09;10365044;28;20044;-30
2024/01/12 12:05:38;;;;;;;17.17;13.53;;;;;;;17.61;33.58;97730.63;10364858;28;20405;-30
2024/01/12 12:10:39;;;;;;;19.95;15.40;;;;;;;17.65;32.11;97733.25;10365073;28;20038;-30
2024/01/12 12:15:39;;;;;;;19.23;15.73;;;;;;;17.70;31.67;97729.13;10364487;28;20041;-30
2024/01/12 12:20:41;;;;;;;18.00;14.63;;;;;;;17.59;32.67;97720.44;10363112;28;20530;-30
2024/01/12 12:25:42;;;;;;;23.65;18.77;;;;;;;17.40;32.18;97727.69;10364789;28;20129;-29
2024/01/12 12:30:43;;;;;;;23.15;17.52;;;;;;;17.45;34.40;97721.00;10363705;28;20033;-29
2024/01/12 12:35:43;;;;;;;21.33;16.15;;;;;;;17.48;34.33;97718.56;10363822;28;20030;-30
2024/01/12 12:40:47;;;;;;;19.42;16.25;;;;;;;17.48;34.67;97705.91;10364371;28;20026;-30
2024/01/12 12:45:51;;;;;;;19.08;14.98;;;;;;;17.52;34.13;97713.59;10363646;28;20510;-30
2024/01/12 12:50:51;;;;;;;19.92;14.93;;;;;;;17.59;33.90;97714.53;10356091;28;20100;-34
2024/01/12 12:55:52;;;;;;;16.02;13.85;;;;;;;17.66;37.09;97708.78;10357713;28;20119;-31
2024/01/12 13:00:52;;;;;;;20.08;16.10;;;;;;;17.70;36.02;97708.00;10365184;28;20371;-32
2024/01/12 13:05:53;;;;;;;20.38;15.70;;;;;;;17.73;36.30;97695.41;10371774;28;20048;-30
2024/01/12 13:10:54;;;;;;;20.03;13.93;;;;;;;17.64;37.24;97703.69;10356720;28;20026;-31
2024/01/12 13:15:55;;;;;;;20.20;14.75;;;;;;;17.58;37.98;97697.66;10370889;28;20810;-30
2024/01/12 13:20:55;;;;;;;15.67;12.97;;;;;;;17.55;38.09;97688.31;10367903;28;20038;-30
2024/01/12 13:25:55;;;;;;;18.10;14.50;;;;;;;17.55;37.50;97684.91;10371270;28;20088;-30
2024/01/12 13:30:56;;;;;;;21.17;16.53;;;;;;;17.57;36.79;97680.75;10370551;28;20040;-30
2024/01/12 13:35:56;;;;;;;18.38;15.13;;;;;;;17.63;37.03;97691.84;10368423;28;20462;-30
2024/01/12 13:40:57;;;;;;;18.80;15.80;;;;;;;17.59;35.62;97690.06;10362061;28;20034;-30
2024/01/12 13:45:57;;;;;;;21.97;17.00;;;;;;;17.66;35.58;97688.53;10356317;28;20522;-30
2024/01/12 13:51:01;;;;;;;22.08;16.70;;;;;;;17.62;35.72;97687.59;10350937;28;20308;-30
2024/01/12 13:56:03;;;;;;;25.90;16.55;;;;;;;17.66;33.71;97691.06;10366180;28;20041;-31
2024/01/12 14:01:03;;;;;;;20.77;16.52;;;;;;;17.65;34.05;97672.47;10366621;28;20037;-29
2024/01/12 14:06:04;;;;;;;21.55;16.00;;;;;;;17.67;35.32;97680.09;10363945;28;20084;-30
2024/01/12 14:11:04;;;;;;;21.23;16.35;;;;;;;17.63;34.08;97670.72;10360527;28;20067;-29
2024/01/12 14:16:05;;;;;;;21.55;16.55;;;;;;;17.65;35.56;97666.56;10358103;28;20034;-30
2024/01/12 14:21:06;;;;;;;18.42;14.88;;;;;;;17.65;36.21;97669.09;10356328;28;20053;-31
2024/01/12 14:26:09;;;;;;;21.07;15.37;;;;;;;17.66;35.46;97670.78;10357460;28;20408;-30
2024/01/12 14:31:10;;;;;;;16.80;14.52;;;;;;;17.63;36.28;97670.72;10356822;28;20051;-31
2024/01/12 14:36:10;;;;;;;21.38;17.38;;;;;;;17.66;35.53;97671.63;10360563;28;20046;-32
2024/01/12 14:41:10;;;;;;;28.53;20.93;;;;;;;17.45;35.65;97673.78;10366659;28;20092;-32
2024/01/12 14:46:11;;;;;;;22.03;18.50;;;;;;;17.59;36.53;97669.81;10367419;28;20327;-30
2024/01/12 14:51:11;;;;;;;21.95;16.75;;;;;;;17.63;37.56;97670.72;10372261;28;20034;-30
2024/01/12 14:56:12;;;;;;;18.23;14.63;;;;;;;17.60;39.06;97679.13;10366808;28;20045;-30
2024/01/12 15:01:12;;;;;;;24.70;17.93;;;;;;;17.64;35.20;97680.00;10367039;28;20325;-30
2024/01/12 15:06:12;;;;;;;26.60;16.00;;;;;;;17.64;37.47;97667.34;10366972;28;20040;-30
2024/01/12 15:11:13;;;;;;;19.63;15.57;;;;;;;17.65;36.50;97674.16;10367679;28;20160;-31
2024/01/12 15:16:14;;;;;;;23.73;16.13;;;;;;;17.71;34.64;97680.19;10366471;28;20864;-31
2024/01/12 15:21:14;;;;;;;22.05;16.20;;;;;;;17.72;35.03;97665.81;10365931;28;20034;-30
2024/01/12 15:26:15;;;;;;;20.57;15.47;;;;;;;17.66;35.73;97661.50;10366918;28;20105;-31
2024/01/12 15:31:15;;;;;;;21.13;16.27;;;;;;;17.71;34.60;97671.72;10365550;28;20034;-29
2024/01/12 15:36:15;;;;;;;22.77;17.30;;;;;;;17.69;34.42;97664.09;10364302;28;20088;-30
2024/01/12 15:41:16;;;;;;;20.53;17.33;;;;;;;17.68;35.80;97666.59;10365744;28;20883;-31
2024/01/12 15:46:16;;;;;;;19.23;17.07;;;;;;;17.68;34.25;97674.19;10365979;28;20037;-29
2024/01/12 15:51:17;;;;;;;21.07;15.77;;;;;;;17.65;35.87;97674.16;10364763;28;20026;-30
2024/01/12 15:56:20;;;;;;;24.67;18.45;;;;;;;17.66;34.40;97665.72;10366246;28;20318;-31
2024/01/12 16:01:25;;;;;;;20.98;15.73;;;;;;;17.69;35.21;97680.97;10364574;28;20034;-31
2024/01/12 16:06:25;;;;;;;20.60;17.02;;;;;;;17.68;35.29;97669.13;10364607;28;20418;-30
2024/01/12 16:11:25;;;;;;;20.47;15.33;;;;;;;17.70;36.65;97678.47;10365419;28;20030;-30
2024/01/12 16:16:26;;;;;;;18.47;15.03;;;;;;;17.73;36.54;97677.69;10364351;28;20044;-30
2024/01/12 16:21:34;;;;;;;21.73;17.17;;;;;;;17.68;35.71;97672.50;10364026;28;20417;-31
2024/01/12 16:26:38;;;;;;;22.02;17.05;;;;;;;17.73;34.95;97682.75;10363909;28;20030;-30
2024/01/12 16:31:39;;;;;;;20.85;16.45;;;;;;;17.73;36.00;97700.47;10355249;28;20031;-30
2024/01/12 16:36:39;;;;;;;21.33;16.43;;;;;;;17.71;34.68;97715.63;10360112;28;20025;-30
2024/01/12 16:41:39;;;;;;;19.87;16.03;;;;;;;17.70;35.15;97713.06;10360358;28;20065;-30
2024/01/12 16:46:42;;;;;;;20.70;16.47;;;;;;;17.71;35.55;97719.81;10361041;28;20045;-30
2024/01/12 16:51:42;;;;;;;25.38;17.92;;;;;;;17.71;34.89;97714.75;10357651;28;20288;-30
2024/01/12 16:56:43;;;;;;;21.50;16.80;;;;;;;17.73;35.27;97713.97;10353632;28;20026;-30
2024/01/12 17:01:43;;;;;;;32.13;24.77;;;;;;;17.40;34.13;97715.03;10348999;28;20045;-31
2024/01/12 17:06:43;;;;;;;22.97;17.50;;;;;;;17.47;36.45;97724.41;10361216;28;20386;-31
2024/01/12 17:11:46;;;;;;;20.90;18.00;;;;;;;17.51;34.85;97704.25;10349272;28;20037;-30
2024/01/12 17:16:46;;;;;;;22.52;17.67;;;;;;;17.51;36.74;97709.31;10358361;28;20033;-31
2024/01/12 17:21:46;;;;;;;23.10;17.70;;;;;;;17.56;37.42;97719.56;10352311;28;20050;-30
2024/01/12 17:26:48;;;;;;;22.88;18.13;;;;;;;17.61;34.38;97707.81;10358747;28;20030;-30
2024/01/12 17:31:51;;;;;;;20.83;16.45;;;;;;;17.57;37.11;97701.00;10354000;28;20033;-30
2024/01/12 17:36:52;;;;;;;21.77;16.15;;;;;;;17.57;37.21;97701.00;10355120;28;20045;-30
2024/01/12 17:41:52;;;;;;;33.90;22.60;;;;;;;17.26;33.11;97699.50;10346919;28;20045;-30
2024/01/12 17:46:52;;;;;;;28.70;21.80;;;;;;;17.44;34.44;97692.31;10358934;28;20095;-30
2024/01/12 17:51:53;;;;;;;23.90;18.10;;;;;;;17.44;37.51;97699.06;10366264;28;20034;-30
2024/01/12 17:56:53;;;;;;;27.43;21.40;;;;;;;17.51;31.97;97703.41;10363704;28;20113;-30
2024/01/12 18:01:54;;;;;;;27.33;22.15;;;;;;;17.52;31.50;97695.84;10368226;28;20037;-30
2024/01/12 18:06:54;;;;;;;28.58;22.65;;;;;;;17.59;33.49;97706.94;10369146;28;20030;-30
2024/01/12 18:11:56;;;;;;;29.37;21.93;;;;;;;17.61;35.10;97698.56;10369033;28;20656;-31
2024/01/12 18:16:56;;;;;;;30.70;21.65;;;;;;;17.62;34.35;97695.19;10369270;28;20062;-30
2024/01/12 18:21:56;;;;;;;25.47;20.50;;;;;;;17.60;33.67;97689.25;10367997;28;20112;-30
2024/01/12 18:26:57;;;;;;;25.45;19.80;;;;;;;17.57;33.90;97704.38;10369460;28;20541;-30
2024/01/12 18:31:59;;;;;;;25.13;21.17;;;;;;;17.54;32.94;97700.94;10368099;28;20037;-30
2024/01/12 18:36:59;;;;;;;26.38;21.08;;;;;;;17.61;31.70;97710.34;10368210;28;20044;-30
2024/01/12 18:42:00;;;;;;;26.73;21.20;;;;;;;17.62;32.29;97719.66;10367503;28;20045;-30
2024/01/12 18:47:00;;;;;;;29.07;22.97;;;;;;;17.67;33.39;97707.94;10368631;28;20033;-30
2024/01/12 18:52:00;;;;;;;14.70;10.10;;;;;;;17.56;39.75;97714.50;10366349;28;20049;-30
2024/01/12 18:57:01;;;;;;;21.73;17.03;;;;;;;17.46;39.82;97712.59;10367747;28;20033;-30
2024/01/12 19:02:01;;;;;;;25.37;17.03;;;;;;;17.38;39.68;97722.56;10360679;28;20040;-30
2024/01/12 19:07:01;;;;;;;22.53;18.53;;;;;;;17.35;38.99;97730.09;10363144;28;20038;-30
2024/01/12 19:12:02;;;;;;;24.08;18.60;;;;;;;17.34;38.57;97735.09;10363184;28;20076;-30
2024/01/12 19:17:02;;;;;;;27.25;19.23;;;;;;;17.36;38.41;97720.81;10363175;28;20034;-29
2024/01/12 19:22:05;;;;;;;27.00;18.70;;;;;;;17.34;39.41;97728.34;10361858;28;20042;-29
2024/01/12 19:27:06;;;;;;;23.55;18.27;;;;;;;17.29;39.02;97727.41;10362678;28;20123;-32
2024/01/12 19:32:10;;;;;;;23.50;18.67;;;;;;;17.30;38.38;97725.72;10363963;28;20387;-31
2024/01/12 19:37:11;;;;;;;27.90;19.70;;;;;;;17.28;37.72;97727.38;10364348;28;20038;-30
2024/01/12 19:42:13;;;;;;;28.55;19.92;;;;;;;17.32;37.95;97732.53;10365678;28;20505;-30
2024/01/12 19:47:14;;;;;;;27.15;20.42;;;;;;;17.30;36.95;97739.25;10365504;28;20465;-30
2024/01/12 19:52:14;;;;;;;23.40;18.25;;;;;;;17.27;37.06;97735.78;10364310;28;20034;-30
2024/01/12 19:57:15;;;;;;;23.37;18.03;;;;;;;17.30;36.54;97731.66;10366018;28;20033;-30
2024/01/12 20:02:15;;;;;;;24.02;18.40;;;;;;;17.32;36.47;97729.16;10361723;28;20493;-30
2024/01/12 20:07:16;;;;;;;23.40;19.27;;;;;;;17.33;34.95;97716.53;10361345;28;20041;-30
2024/01/12 20:12:17;;;;;;;23.80;18.63;;;;;;;17.33;35.22;97716.53;10358742;28;20052;-31
2024/01/12 20:17:17;;;;;;;23.27;18.55;;;;;;;17.33;35.82;97715.69;10358576;28;20032;-31
2024/01/12 20:22:17;;;;;;;22.90;17.80;;;;;;;17.30;35.11;97713.06;10357016;28;20034;-30
2024/01/12 20:27:18;;;;;;;21.30;17.57;;;;;;;17.28;36.50;97700.41;10360514;28;20048;-31
2024/01/12 20:32:18;;;;;;;20.17;16.98;;;;;;;17.25;36.90;97697.78;10360649;28;20780;-31
2024/01/12 20:37:19;;;;;;;25.03;16.90;;;;;;;17.15;36.66;97679.88;10359279;28;20464;-31
2024/01/12 20:42:19;;;;;;;19.00;16.70;;;;;;;17.13;36.52;97684.03;10360595;28;20034;-30
2024/01/12 20:47:23;;;;;;;21.73;17.37;;;;;;;17.05;36.58;97667.84;10360164;28;20533;-30
2024/01/12 20:52:23;;;;;;;24.23;18.35;;;;;;;17.16;37.09;97687.47;10357947;28;20033;-30
2024/01/12 20:57:24;;;;;;;21.53;16.87;;;;;;;17.19;36.64;97684.16;10360516;28;20037;-30
2024/01/12 21:02:24;;;;;;;21.50;17.00;;;;;;;17.21;37.11;97692.63;10359052;28;20311;-30
2024/01/12 21:07:25;;;;;;;19.08;15.93;;;;;;;17.22;36.35;97684.22;10359594;28;20228;-31
2024/01/12 21:12:25;;;;;;;17.42;14.80;;;;;;;17.24;35.82;97685.97;10359373;28;20046;-30
2024/01/12 21:17:25;;;;;;;18.63;15.13;;;;;;;17.27;36.18;97690.25;10359538;28;20087;-30
2024/01/12 21:22:26;;;;;;;18.57;15.27;;;;;;;17.23;36.36;97689.31;10364211;28;20069;-30
2024/01/12 21:27:31;;;;;;;22.10;15.87;;;;;;;17.26;36.69;97693.59;10369823;28;20284;-30
2024/01/12 21:32:34;;;;;;;19.23;14.80;;;;;;;17.27;36.93;97692.78;10366543;28;20037;-30
2024/01/12 21:37:34;;;;;;;19.02;15.70;;;;;;;17.26;36.82;97688.53;10367392;28;20044;-31
2024/01/12 21:42:35;;;;;;;18.73;15.00;;;;;;;17.29;38.15;97693.66;10370944;28;20037;-30
2024/01/12 21:47:35;;;;;;;19.85;16.17;;;;;;;17.28;37.13;97705.47;10370262;28;20045;-30
2024/01/12 21:52:36;;;;;;;21.63;16.33;;;;;;;17.22;37.14;97702.81;10369472;28;20038;-31
2024/01/12 21:57:36;;;;;;;18.70;15.40;;;;;;;17.24;36.83;97707.91;10368397;28;20092;-30
2024/01/12 22:02:37;;;;;;;19.33;15.40;;;;;;;17.15;37.62;97692.53;10368755;28;20034;-31
2024/01/12 22:07:37;;;;;;;19.95;15.73;;;;;;;17.22;36.94;97699.41;10369043;28;20042;-30
2024/01/12 22:12:37;;;;;;;18.47;14.67;;;;;;;17.21;37.19;97692.63;10369865;28;20022;-30
2024/01/12 22:17:38;;;;;;;22.73;15.33;;;;;;;17.18;37.50;97700.19;10369377;28;20308;-30
2024/01/12 22:22:39;;;;;;;19.43;14.47;;;;;;;17.15;37.44;97684.94;10368557;28;20041;-30
2024/01/12 22:27:40;;;;;;;17.23;15.18;;;;;;;17.14;37.87;97680.72;10369616;28;20064;-31
2024/01/12 22:32:41;;;;;;;18.27;14.52;;;;;;;17.15;37.51;97672.28;10365137;28;20077;-31
2024/01/12 22:37:41;;;;;;;19.02;14.60;;;;;;;17.13;37.44;97667.19;10368439;28;20128;-30
2024/01/12 22:42:41;;;;;;;18.97;15.00;;;;;;;17.14;36.63;97663.00;10368814;28;20048;-30
2024/01/12 22:47:42;;;;;;;20.67;16.17;;;;;;;17.17;37.38;97663.03;10368072;28;20088;-30
2024/01/12 22:52:42;;;;;;;19.48;14.13;;;;;;;17.11;37.45;97642.69;10367219;28;20037;-30
2024/01/12 22:57:43;;;;;;;17.40;14.57;;;;;;;17.15;37.95;97660.47;10368384;28;20042;-30